sensor_id;sensor_type;location;lat;lon;timestamp;temperature;humidity
10802;DHT22;5453;50.852;7.102;2022-10-28T00:01:25;17.70;99.90
10802;DHT22;5453;50.852;7.102;2022-10-28T00:04:00;17.70;99.90
10802;DHT22;5453;50.852;7.102;2022-10-28T00:06:34;17.70;99.90
10802;DHT22;5453;50.852;7.102;2022-10-28T00:09:07;17.70;99.90
10802;DHT22;5453;50.852;7.102;2022-10-28T00:11:39;17.80;99.90
10802;DHT22;5453;50.852;7.102;2022-10-28T00:14:11;17.80;99.90
10802;DHT22;5453;50.852;7.102;2022-10-28T00:16:44;17.80;99.90
10802;DHT22;5453;50.852;7.102;2022-10-28T00:19:16;17.80;99.90
10802;DHT22;5453;50.852;7.102;2022-10-28T00:21:50;17.90;99.90
10802;DHT22;5453;50.852;7.102;2022-10-28T00:24:29;17.80;99.90
10802;DHT22;5453;50.852;7.102;2022-10-28T00:27:01;17.90;99.90
10802;DHT22;5453;50.852;7.102;2022-10-28T00:29:33;17.90;99.90
10802;DHT22;5453;50.852;7.102;2022-10-28T00:32:05;17.90;99.90
10802;DHT22;5453;50.852;7.102;2022-10-28T00:34:37;17.90;99.90
10802;DHT22;5453;50.852;7.102;2022-10-28T00:37:11;17.90;99.90
10802;DHT22;5453;50.852;7.102;2022-10-28T00:39:43;17.90;99.90
10802;DHT22;5453;50.852;7.102;2022-10-28T00:42:18;17.90;99.90
10802;DHT22;5453;50.852;7.102;2022-10-28T00:44:54;17.90;99.90
10802;DHT22;5453;50.852;7.102;2022-10-28T00:47:42;17.90;99.90
10802;DHT22;5453;50.852;7.102;2022-10-28T00:50:38;17.90;99.90
10802;DHT22;5453;50.852;7.102;2022-10-28T00:53:18;17.80;99.90
10802;DHT22;5453;50.852;7.102;2022-10-28T00:55:53;17.80;99.90
10802;DHT22;5453;50.852;7.102;2022-10-28T00:58:39;17.80;99.90
10802;DHT22;5453;50.852;7.102;2022-10-28T01:01:11;17.80;99.90
10802;DHT22;5453;50.852;7.102;2022-10-28T01:03:43;17.80;99.90
10802;DHT22;5453;50.852;7.102;2022-10-28T01:06:16;17.70;99.90
10802;DHT22;5453;50.852;7.102;2022-10-28T01:08:48;17.70;99.90
10802;DHT22;5453;50.852;7.102;2022-10-28T01:11:47;17.70;99.90
10802;DHT22;5453;50.852;7.102;2022-10-28T01:14:41;17.70;99.90
10802;DHT22;5453;50.852;7.102;2022-10-28T01:17:29;17.60;99.90
10802;DHT22;5453;50.852;7.102;2022-10-28T01:24:07;17.60;99.90
10802;DHT22;5453;50.852;7.102;2022-10-28T01:27:23;17.60;99.90
10802;DHT22;5453;50.852;7.102;2022-10-28T01:30:09;17.60;99.90
10802;DHT22;5453;50.852;7.102;2022-10-28T01:32:50;17.60;99.90
10802;DHT22;5453;50.852;7.102;2022-10-28T01:35:28;17.50;99.90
10802;DHT22;5453;50.852;7.102;2022-10-28T01:38:15;17.60;99.90
10802;DHT22;5453;50.852;7.102;2022-10-28T01:40:57;17.60;99.90
10802;DHT22;5453;50.852;7.102;2022-10-28T01:43:46;17.50;99.90
10802;DHT22;5453;50.852;7.102;2022-10-28T01:46:26;17.50;99.90
10802;DHT22;5453;50.852;7.102;2022-10-28T01:49:07;17.50;99.90
10802;DHT22;5453;50.852;7.102;2022-10-28T01:51:44;17.50;99.90
10802;DHT22;5453;50.852;7.102;2022-10-28T01:54:21;17.50;99.90
10802;DHT22;5453;50.852;7.102;2022-10-28T01:56:56;17.50;99.90
10802;DHT22;5453;50.852;7.102;2022-10-28T01:59:30;17.40;99.90
10802;DHT22;5453;50.852;7.102;2022-10-28T02:02:02;17.40;99.90
10802;DHT22;5453;50.852;7.102;2022-10-28T02:04:36;17.40;99.90
10802;DHT22;5453;50.852;7.102;2022-10-28T02:07:08;17.30;99.90
10802;DHT22;5453;50.852;7.102;2022-10-28T02:09:50;17.30;99.90
10802;DHT22;5453;50.852;7.102;2022-10-28T02:12:28;17.30;99.90
10802;DHT22;5453;50.852;7.102;2022-10-28T02:15:22;17.20;99.90
10802;DHT22;5453;50.852;7.102;2022-10-28T02:18:10;17.20;99.90
10802;DHT22;5453;50.852;7.102;2022-10-28T02:20:50;17.20;99.90
10802;DHT22;5453;50.852;7.102;2022-10-28T02:23:32;17.10;99.90
10802;DHT22;5453;50.852;7.102;2022-10-28T02:26:16;17.10;99.90
10802;DHT22;5453;50.852;7.102;2022-10-28T02:28:57;17.10;99.90
10802;DHT22;5453;50.852;7.102;2022-10-28T02:31:35;17.10;99.90
10802;DHT22;5453;50.852;7.102;2022-10-28T02:34:13;17.10;99.90
10802;DHT22;5453;50.852;7.102;2022-10-28T02:36:52;17.10;99.90
10802;DHT22;5453;50.852;7.102;2022-10-28T02:39:28;17.00;99.90
10802;DHT22;5453;50.852;7.102;2022-10-28T02:42:07;17.00;99.90
10802;DHT22;5453;50.852;7.102;2022-10-28T02:44:44;17.00;99.90
10802;DHT22;5453;50.852;7.102;2022-10-28T02:47:23;16.90;99.90
10802;DHT22;5453;50.852;7.102;2022-10-28T02:50:00;16.90;99.90
10802;DHT22;5453;50.852;7.102;2022-10-28T02:52:37;16.90;99.90
10802;DHT22;5453;50.852;7.102;2022-10-28T02:55:10;16.90;99.90
10802;DHT22;5453;50.852;7.102;2022-10-28T02:57:43;16.90;99.90
10802;DHT22;5453;50.852;7.102;2022-10-28T03:00:20;16.90;99.90
10802;DHT22;5453;50.852;7.102;2022-10-28T03:02:54;16.90;99.90
10802;DHT22;5453;50.852;7.102;2022-10-28T03:05:26;16.90;99.90
10802;DHT22;5453;50.852;7.102;2022-10-28T03:07:59;16.80;99.90
10802;DHT22;5453;50.852;7.102;2022-10-28T03:10:31;16.90;99.90
10802;DHT22;5453;50.852;7.102;2022-10-28T03:13:03;16.90;99.90
10802;DHT22;5453;50.852;7.102;2022-10-28T03:15:35;16.90;99.90
10802;DHT22;5453;50.852;7.102;2022-10-28T03:18:07;16.90;99.90
10802;DHT22;5453;50.852;7.102;2022-10-28T03:20:39;17.00;99.90
10802;DHT22;5453;50.852;7.102;2022-10-28T03:23:13;17.00;99.90
10802;DHT22;5453;50.852;7.102;2022-10-28T03:25:45;17.10;99.90
10802;DHT22;5453;50.852;7.102;2022-10-28T03:28:17;17.10;99.90
10802;DHT22;5453;50.852;7.102;2022-10-28T03:30:49;17.20;99.90
10802;DHT22;5453;50.852;7.102;2022-10-28T03:33:21;17.20;99.90
10802;DHT22;5453;50.852;7.102;2022-10-28T03:35:53;17.20;99.90
10802;DHT22;5453;50.852;7.102;2022-10-28T03:38:26;17.30;99.90
10802;DHT22;5453;50.852;7.102;2022-10-28T03:40:59;17.30;99.90
10802;DHT22;5453;50.852;7.102;2022-10-28T03:43:31;17.30;99.90
10802;DHT22;5453;50.852;7.102;2022-10-28T03:46:03;17.40;99.90
10802;DHT22;5453;50.852;7.102;2022-10-28T03:48:35;17.40;99.90
10802;DHT22;5453;50.852;7.102;2022-10-28T03:51:07;17.30;99.90
10802;DHT22;5453;50.852;7.102;2022-10-28T03:53:41;17.30;99.90
10802;DHT22;5453;50.852;7.102;2022-10-28T03:56:13;17.30;99.90
10802;DHT22;5453;50.852;7.102;2022-10-28T03:58:46;17.20;99.90
10802;DHT22;5453;50.852;7.102;2022-10-28T04:01:18;17.10;99.90
10802;DHT22;5453;50.852;7.102;2022-10-28T04:03:50;17.10;99.90
10802;DHT22;5453;50.852;7.102;2022-10-28T04:06:22;17.00;99.90
10802;DHT22;5453;50.852;7.102;2022-10-28T04:08:56;16.90;99.90
10802;DHT22;5453;50.852;7.102;2022-10-28T04:11:28;16.80;99.90
10802;DHT22;5453;50.852;7.102;2022-10-28T04:14:00;16.80;99.90
10802;DHT22;5453;50.852;7.102;2022-10-28T04:16:32;16.70;99.90
10802;DHT22;5453;50.852;7.102;2022-10-28T04:19:04;16.60;99.90
10802;DHT22;5453;50.852;7.102;2022-10-28T04:21:36;16.50;99.90
10802;DHT22;5453;50.852;7.102;2022-10-28T04:24:09;16.50;99.90
10802;DHT22;5453;50.852;7.102;2022-10-28T04:26:41;16.50;99.90
10802;DHT22;5453;50.852;7.102;2022-10-28T04:29:13;16.40;99.90
10802;DHT22;5453;50.852;7.102;2022-10-28T04:31:45;16.40;99.90
10802;DHT22;5453;50.852;7.102;2022-10-28T04:34:17;16.30;99.90
10802;DHT22;5453;50.852;7.102;2022-10-28T04:36:50;16.20;99.90
10802;DHT22;5453;50.852;7.102;2022-10-28T04:39:23;16.20;99.90
10802;DHT22;5453;50.852;7.102;2022-10-28T04:41:55;16.10;99.90
10802;DHT22;5453;50.852;7.102;2022-10-28T04:44:28;16.10;99.90
10802;DHT22;5453;50.852;7.102;2022-10-28T04:47:01;16.00;99.90
10802;DHT22;5453;50.852;7.102;2022-10-28T04:49:33;16.00;99.90
10802;DHT22;5453;50.852;7.102;2022-10-28T04:52:06;16.00;99.90
10802;DHT22;5453;50.852;7.102;2022-10-28T04:54:39;16.00;99.90
10802;DHT22;5453;50.852;7.102;2022-10-28T04:57:12;15.90;99.90
10802;DHT22;5453;50.852;7.102;2022-10-28T04:59:44;15.90;99.90
10802;DHT22;5453;50.852;7.102;2022-10-28T05:02:16;15.90;99.90
10802;DHT22;5453;50.852;7.102;2022-10-28T05:04:48;15.90;99.90
10802;DHT22;5453;50.852;7.102;2022-10-28T05:07:22;15.80;99.90
10802;DHT22;5453;50.852;7.102;2022-10-28T05:09:56;15.90;99.90
10802;DHT22;5453;50.852;7.102;2022-10-28T05:12:29;15.80;99.90
10802;DHT22;5453;50.852;7.102;2022-10-28T05:15:02;15.80;99.90
10802;DHT22;5453;50.852;7.102;2022-10-28T05:17:37;15.80;99.90
10802;DHT22;5453;50.852;7.102;2022-10-28T05:20:11;15.80;99.90
10802;DHT22;5453;50.852;7.102;2022-10-28T05:22:45;15.80;99.90
10802;DHT22;5453;50.852;7.102;2022-10-28T05:25:20;15.80;99.90
10802;DHT22;5453;50.852;7.102;2022-10-28T05:27:52;15.80;99.90
10802;DHT22;5453;50.852;7.102;2022-10-28T05:30:29;15.90;99.90
10802;DHT22;5453;50.852;7.102;2022-10-28T05:33:01;16.00;99.90
10802;DHT22;5453;50.852;7.102;2022-10-28T05:35:34;16.00;99.90
10802;DHT22;5453;50.852;7.102;2022-10-28T05:38:07;16.00;99.90
10802;DHT22;5453;50.852;7.102;2022-10-28T05:40:40;16.10;99.90
10802;DHT22;5453;50.852;7.102;2022-10-28T05:43:12;16.10;99.90
10802;DHT22;5453;50.852;7.102;2022-10-28T05:45:51;16.10;99.90
10802;DHT22;5453;50.852;7.102;2022-10-28T05:48:23;16.10;99.90
10802;DHT22;5453;50.852;7.102;2022-10-28T05:50:55;16.20;99.90
10802;DHT22;5453;50.852;7.102;2022-10-28T05:53:27;16.20;99.90
10802;DHT22;5453;50.852;7.102;2022-10-28T05:56:01;16.20;99.90
10802;DHT22;5453;50.852;7.102;2022-10-28T05:58:33;16.30;99.90
10802;DHT22;5453;50.852;7.102;2022-10-28T06:01:06;16.30;99.90
10802;DHT22;5453;50.852;7.102;2022-10-28T06:03:38;16.30;99.90
10802;DHT22;5453;50.852;7.102;2022-10-28T06:06:10;16.30;99.90
10802;DHT22;5453;50.852;7.102;2022-10-28T06:08:42;16.40;99.90
10802;DHT22;5453;50.852;7.102;2022-10-28T06:11:15;16.40;99.90
10802;DHT22;5453;50.852;7.102;2022-10-28T06:13:47;16.50;99.90
10802;DHT22;5453;50.852;7.102;2022-10-28T06:16:19;16.50;99.90
10802;DHT22;5453;50.852;7.102;2022-10-28T06:18:51;16.50;99.90
10802;DHT22;5453;50.852;7.102;2022-10-28T06:21:23;16.50;99.90
10802;DHT22;5453;50.852;7.102;2022-10-28T06:23:55;16.60;99.90
10802;DHT22;5453;50.852;7.102;2022-10-28T06:26:29;16.60;99.90
10802;DHT22;5453;50.852;7.102;2022-10-28T06:29:01;16.60;99.90
10802;DHT22;5453;50.852;7.102;2022-10-28T06:31:33;16.60;99.90
10802;DHT22;5453;50.852;7.102;2022-10-28T06:34:05;16.60;99.90
10802;DHT22;5453;50.852;7.102;2022-10-28T06:36:37;16.60;99.90
10802;DHT22;5453;50.852;7.102;2022-10-28T06:39:10;16.60;99.90
10802;DHT22;5453;50.852;7.102;2022-10-28T06:41:43;16.70;99.90
10802;DHT22;5453;50.852;7.102;2022-10-28T06:44:15;16.70;99.90
10802;DHT22;5453;50.852;7.102;2022-10-28T06:46:47;16.70;99.90
10802;DHT22;5453;50.852;7.102;2022-10-28T06:49:20;16.70;99.90
10802;DHT22;5453;50.852;7.102;2022-10-28T06:51:52;16.80;99.90
10802;DHT22;5453;50.852;7.102;2022-10-28T06:54:24;16.80;99.90
10802;DHT22;5453;50.852;7.102;2022-10-28T06:56:57;16.80;99.90
10802;DHT22;5453;50.852;7.102;2022-10-28T06:59:29;16.90;99.90
10802;DHT22;5453;50.852;7.102;2022-10-28T07:02:01;17.00;99.90
10802;DHT22;5453;50.852;7.102;2022-10-28T07:04:34;17.20;99.90
10802;DHT22;5453;50.852;7.102;2022-10-28T07:07:06;17.30;99.90
10802;DHT22;5453;50.852;7.102;2022-10-28T07:09:38;17.40;99.90
10802;DHT22;5453;50.852;7.102;2022-10-28T07:12:13;17.40;99.90
10802;DHT22;5453;50.852;7.102;2022-10-28T07:14:45;17.50;99.90
10802;DHT22;5453;50.852;7.102;2022-10-28T07:17:18;17.50;99.90
10802;DHT22;5453;50.852;7.102;2022-10-28T07:19:50;17.60;99.90
10802;DHT22;5453;50.852;7.102;2022-10-28T07:22:22;17.60;99.90
10802;DHT22;5453;50.852;7.102;2022-10-28T07:24:54;17.70;99.90
10802;DHT22;5453;50.852;7.102;2022-10-28T07:27:27;17.70;99.90
10802;DHT22;5453;50.852;7.102;2022-10-28T07:29:59;17.80;99.90
10802;DHT22;5453;50.852;7.102;2022-10-28T07:32:32;17.80;99.90
10802;DHT22;5453;50.852;7.102;2022-10-28T07:35:04;17.90;99.90
10802;DHT22;5453;50.852;7.102;2022-10-28T07:37:37;17.90;99.90
10802;DHT22;5453;50.852;7.102;2022-10-28T07:40:09;18.00;99.90
10802;DHT22;5453;50.852;7.102;2022-10-28T07:42:43;18.00;99.90
10802;DHT22;5453;50.852;7.102;2022-10-28T07:45:16;18.10;99.90
10802;DHT22;5453;50.852;7.102;2022-10-28T07:47:48;18.10;99.90
10802;DHT22;5453;50.852;7.102;2022-10-28T07:50:20;18.10;99.90
10802;DHT22;5453;50.852;7.102;2022-10-28T07:52:53;18.20;99.90
10802;DHT22;5453;50.852;7.102;2022-10-28T07:55:25;18.20;99.90
10802;DHT22;5453;50.852;7.102;2022-10-28T07:57:59;18.40;99.90
10802;DHT22;5453;50.852;7.102;2022-10-28T08:00:31;18.60;99.90
10802;DHT22;5453;50.852;7.102;2022-10-28T08:03:03;18.70;99.90
10802;DHT22;5453;50.852;7.102;2022-10-28T08:05:35;18.90;99.90
10802;DHT22;5453;50.852;7.102;2022-10-28T08:08:07;19.00;99.90
10802;DHT22;5453;50.852;7.102;2022-10-28T08:10:39;18.90;99.90
10802;DHT22;5453;50.852;7.102;2022-10-28T08:13:12;18.90;99.90
10802;DHT22;5453;50.852;7.102;2022-10-28T08:15:50;19.00;99.90
10802;DHT22;5453;50.852;7.102;2022-10-28T08:18:23;19.00;99.90
10802;DHT22;5453;50.852;7.102;2022-10-28T08:20:58;19.00;99.90
10802;DHT22;5453;50.852;7.102;2022-10-28T08:23:31;19.00;99.90
10802;DHT22;5453;50.852;7.102;2022-10-28T08:26:03;19.00;99.90
10802;DHT22;5453;50.852;7.102;2022-10-28T08:28:37;18.90;99.90
10802;DHT22;5453;50.852;7.102;2022-10-28T08:31:09;18.80;99.90
10802;DHT22;5453;50.852;7.102;2022-10-28T08:33:43;18.80;99.90
10802;DHT22;5453;50.852;7.102;2022-10-28T08:36:16;18.80;99.90
10802;DHT22;5453;50.852;7.102;2022-10-28T08:38:48;18.70;99.90
10802;DHT22;5453;50.852;7.102;2022-10-28T08:41:30;18.70;99.90
10802;DHT22;5453;50.852;7.102;2022-10-28T08:44:38;18.70;99.90
10802;DHT22;5453;50.852;7.102;2022-10-28T08:47:26;18.70;99.90
10802;DHT22;5453;50.852;7.102;2022-10-28T08:50:11;18.70;99.90
10802;DHT22;5453;50.852;7.102;2022-10-28T08:52:48;18.70;99.90
10802;DHT22;5453;50.852;7.102;2022-10-28T08:55:24;18.70;99.90
10802;DHT22;5453;50.852;7.102;2022-10-28T08:58:03;18.80;99.90
10802;DHT22;5453;50.852;7.102;2022-10-28T09:00:43;18.80;99.90
10802;DHT22;5453;50.852;7.102;2022-10-28T09:03:20;18.90;99.90
10802;DHT22;5453;50.852;7.102;2022-10-28T09:05:59;18.90;99.90
10802;DHT22;5453;50.852;7.102;2022-10-28T09:08:35;19.00;99.90
10802;DHT22;5453;50.852;7.102;2022-10-28T09:14:23;19.40;99.90
10802;DHT22;5453;50.852;7.102;2022-10-28T09:17:16;19.60;99.90
10802;DHT22;5453;50.852;7.102;2022-10-28T09:19:51;19.80;99.90
10802;DHT22;5453;50.852;7.102;2022-10-28T09:22:27;20.00;99.90
10802;DHT22;5453;50.852;7.102;2022-10-28T09:25:10;20.20;99.90
10802;DHT22;5453;50.852;7.102;2022-10-28T09:27:58;20.40;99.90
10802;DHT22;5453;50.852;7.102;2022-10-28T09:30:47;20.60;99.90
10802;DHT22;5453;50.852;7.102;2022-10-28T09:33:41;20.80;99.90
10802;DHT22;5453;50.852;7.102;2022-10-28T09:36:24;21.00;99.90
10802;DHT22;5453;50.852;7.102;2022-10-28T09:39:00;21.10;99.90
10802;DHT22;5453;50.852;7.102;2022-10-28T09:41:37;21.20;99.90
10802;DHT22;5453;50.852;7.102;2022-10-28T09:44:14;21.20;99.90
10802;DHT22;5453;50.852;7.102;2022-10-28T09:46:53;21.20;99.90
10802;DHT22;5453;50.852;7.102;2022-10-28T09:49:30;21.30;99.90
10802;DHT22;5453;50.852;7.102;2022-10-28T09:52:12;21.30;99.90
10802;DHT22;5453;50.852;7.102;2022-10-28T09:54:50;21.40;99.90
10802;DHT22;5453;50.852;7.102;2022-10-28T09:57:29;21.60;99.90
10802;DHT22;5453;50.852;7.102;2022-10-28T10:00:02;21.70;99.90
10802;DHT22;5453;50.852;7.102;2022-10-28T10:02:40;21.90;99.90
10802;DHT22;5453;50.852;7.102;2022-10-28T10:05:15;22.00;99.90
10802;DHT22;5453;50.852;7.102;2022-10-28T10:07:51;22.10;99.90
10802;DHT22;5453;50.852;7.102;2022-10-28T10:10:27;22.20;99.90
10802;DHT22;5453;50.852;7.102;2022-10-28T10:13:02;22.20;99.90
10802;DHT22;5453;50.852;7.102;2022-10-28T10:15:35;22.30;99.90
10802;DHT22;5453;50.852;7.102;2022-10-28T10:18:14;22.40;99.90
10802;DHT22;5453;50.852;7.102;2022-10-28T10:20:53;22.50;99.80
10802;DHT22;5453;50.852;7.102;2022-10-28T10:23:29;22.60;99.70
10802;DHT22;5453;50.852;7.102;2022-10-28T10:26:05;22.70;99.40
10802;DHT22;5453;50.852;7.102;2022-10-28T10:28:43;22.70;99.20
10802;DHT22;5453;50.852;7.102;2022-10-28T10:31:18;22.70;98.90
10802;DHT22;5453;50.852;7.102;2022-10-28T10:33:53;22.70;98.80
10802;DHT22;5453;50.852;7.102;2022-10-28T10:36:28;22.70;98.80
10802;DHT22;5453;50.852;7.102;2022-10-28T10:39:01;22.70;99.10
10802;DHT22;5453;50.852;7.102;2022-10-28T10:41:34;22.70;99.00
10802;DHT22;5453;50.852;7.102;2022-10-28T10:44:29;22.70;98.90
10802;DHT22;5453;50.852;7.102;2022-10-28T10:47:19;22.70;98.70
10802;DHT22;5453;50.852;7.102;2022-10-28T10:49:52;22.80;98.60
10802;DHT22;5453;50.852;7.102;2022-10-28T10:52:52;22.90;98.70
10802;DHT22;5453;50.852;7.102;2022-10-28T10:55:32;23.00;98.40
10802;DHT22;5453;50.852;7.102;2022-10-28T10:58:13;23.00;98.40
10802;DHT22;5453;50.852;7.102;2022-10-28T11:00:49;23.00;98.20
10802;DHT22;5453;50.852;7.102;2022-10-28T11:03:26;23.00;98.30
10802;DHT22;5453;50.852;7.102;2022-10-28T11:05:59;23.00;98.20
10802;DHT22;5453;50.852;7.102;2022-10-28T11:08:37;23.00;98.40
10802;DHT22;5453;50.852;7.102;2022-10-28T11:11:13;23.00;98.30
10802;DHT22;5453;50.852;7.102;2022-10-28T11:13:47;23.10;98.20
10802;DHT22;5453;50.852;7.102;2022-10-28T11:16:21;23.20;98.20
10802;DHT22;5453;50.852;7.102;2022-10-28T11:18:54;23.20;97.70
10802;DHT22;5453;50.852;7.102;2022-10-28T11:21:39;23.40;97.90
10802;DHT22;5453;50.852;7.102;2022-10-28T11:27:43;23.60;97.50
10802;DHT22;5453;50.852;7.102;2022-10-28T11:30:28;23.70;97.00
10802;DHT22;5453;50.852;7.102;2022-10-28T11:33:12;23.80;96.90
10802;DHT22;5453;50.852;7.102;2022-10-28T11:35:54;23.90;96.70
10802;DHT22;5453;50.852;7.102;2022-10-28T11:38:42;24.00;96.60
10802;DHT22;5453;50.852;7.102;2022-10-28T11:41:27;23.90;96.60
10802;DHT22;5453;50.852;7.102;2022-10-28T11:44:10;23.80;96.60
10802;DHT22;5453;50.852;7.102;2022-10-28T11:47:00;23.70;96.90
10802;DHT22;5453;50.852;7.102;2022-10-28T11:50:10;23.70;96.60
10802;DHT22;5453;50.852;7.102;2022-10-28T11:53:02;23.70;96.50
10802;DHT22;5453;50.852;7.102;2022-10-28T11:55:52;23.70;96.80
10802;DHT22;5453;50.852;7.102;2022-10-28T11:58:36;23.60;96.60
10802;DHT22;5453;50.852;7.102;2022-10-28T12:01:28;23.70;96.70
10802;DHT22;5453;50.852;7.102;2022-10-28T12:04:16;23.70;96.60
10802;DHT22;5453;50.852;7.102;2022-10-28T12:07:33;23.70;96.60
10802;DHT22;5453;50.852;7.102;2022-10-28T12:10:29;23.70;96.60
10802;DHT22;5453;50.852;7.102;2022-10-28T12:13:16;23.70;96.70
10802;DHT22;5453;50.852;7.102;2022-10-28T12:15:59;23.70;96.70
10802;DHT22;5453;50.852;7.102;2022-10-28T12:18:47;23.80;96.50
10802;DHT22;5453;50.852;7.102;2022-10-28T12:21:26;23.90;96.60
10802;DHT22;5453;50.852;7.102;2022-10-28T12:24:05;24.00;96.60
10802;DHT22;5453;50.852;7.102;2022-10-28T12:26:43;24.00;96.40
10802;DHT22;5453;50.852;7.102;2022-10-28T12:29:19;24.20;96.30
10802;DHT22;5453;50.852;7.102;2022-10-28T12:31:59;24.30;96.20
10802;DHT22;5453;50.852;7.102;2022-10-28T12:34:37;24.40;95.50
10802;DHT22;5453;50.852;7.102;2022-10-28T12:37:14;24.50;94.80
10802;DHT22;5453;50.852;7.102;2022-10-28T12:39:54;24.60;94.60
10802;DHT22;5453;50.852;7.102;2022-10-28T12:42:31;24.70;94.10
10802;DHT22;5453;50.852;7.102;2022-10-28T12:45:10;24.70;93.90
10802;DHT22;5453;50.852;7.102;2022-10-28T12:47:50;24.70;93.50
10802;DHT22;5453;50.852;7.102;2022-10-28T12:50:28;24.60;93.10
10802;DHT22;5453;50.852;7.102;2022-10-28T12:53:33;24.50;93.00
10802;DHT22;5453;50.852;7.102;2022-10-28T12:56:10;24.40;93.20
10802;DHT22;5453;50.852;7.102;2022-10-28T12:58:51;24.30;93.40
10802;DHT22;5453;50.852;7.102;2022-10-28T13:01:31;24.30;93.60
10802;DHT22;5453;50.852;7.102;2022-10-28T13:04:05;24.20;93.60
10802;DHT22;5453;50.852;7.102;2022-10-28T13:06:54;24.20;93.70
10802;DHT22;5453;50.852;7.102;2022-10-28T13:09:43;24.20;93.70
10802;DHT22;5453;50.852;7.102;2022-10-28T13:12:57;24.10;93.60
10802;DHT22;5453;50.852;7.102;2022-10-28T13:15:56;24.10;93.50
10802;DHT22;5453;50.852;7.102;2022-10-28T13:22:23;23.90;93.70
10802;DHT22;5453;50.852;7.102;2022-10-28T13:25:21;23.90;93.80
10802;DHT22;5453;50.852;7.102;2022-10-28T13:27:58;23.80;94.00
10802;DHT22;5453;50.852;7.102;2022-10-28T13:30:31;23.80;94.10
10802;DHT22;5453;50.852;7.102;2022-10-28T13:33:06;23.80;94.40
10802;DHT22;5453;50.852;7.102;2022-10-28T13:35:41;23.80;94.60
10802;DHT22;5453;50.852;7.102;2022-10-28T13:38:18;23.70;94.80
10802;DHT22;5453;50.852;7.102;2022-10-28T13:41:29;23.70;95.00
10802;DHT22;5453;50.852;7.102;2022-10-28T13:47:27;23.70;95.30
10802;DHT22;5453;50.852;7.102;2022-10-28T13:50:15;23.80;95.40
10802;DHT22;5453;50.852;7.102;2022-10-28T13:56:28;23.80;95.30
10802;DHT22;5453;50.852;7.102;2022-10-28T13:59:14;23.70;95.40
10802;DHT22;5453;50.852;7.102;2022-10-28T14:01:55;23.70;95.60
10802;DHT22;5453;50.852;7.102;2022-10-28T14:04:30;23.70;95.80
10802;DHT22;5453;50.852;7.102;2022-10-28T14:07:25;23.70;96.00
10802;DHT22;5453;50.852;7.102;2022-10-28T14:10:13;23.60;96.10
10802;DHT22;5453;50.852;7.102;2022-10-28T14:12:53;23.60;96.00
10802;DHT22;5453;50.852;7.102;2022-10-28T14:15:28;23.60;96.00
10802;DHT22;5453;50.852;7.102;2022-10-28T14:18:03;23.50;95.80
10802;DHT22;5453;50.852;7.102;2022-10-28T14:20:39;23.50;95.80
10802;DHT22;5453;50.852;7.102;2022-10-28T14:30:22;23.30;96.40
10802;DHT22;5453;50.852;7.102;2022-10-28T14:36:07;23.20;97.60
10802;DHT22;5453;50.852;7.102;2022-10-28T14:39:16;23.20;97.90
10802;DHT22;5453;50.852;7.102;2022-10-28T14:42:15;23.10;98.00
10802;DHT22;5453;50.852;7.102;2022-10-28T14:45:13;23.00;98.40
10802;DHT22;5453;50.852;7.102;2022-10-28T14:48:25;23.00;98.70
10802;DHT22;5453;50.852;7.102;2022-10-28T14:51:08;23.00;99.00
10802;DHT22;5453;50.852;7.102;2022-10-28T14:53:44;22.90;99.10
10802;DHT22;5453;50.852;7.102;2022-10-28T14:56:22;22.90;98.60
10802;DHT22;5453;50.852;7.102;2022-10-28T14:58:58;22.70;98.20
10802;DHT22;5453;50.852;7.102;2022-10-28T15:01:49;22.70;97.90
10802;DHT22;5453;50.852;7.102;2022-10-28T15:04:37;22.70;97.60
10802;DHT22;5453;50.852;7.102;2022-10-28T15:07:14;22.60;97.40
10802;DHT22;5453;50.852;7.102;2022-10-28T15:09:48;22.60;97.30
10802;DHT22;5453;50.852;7.102;2022-10-28T15:12:24;22.60;97.20
10802;DHT22;5453;50.852;7.102;2022-10-28T15:14:58;22.60;97.10
10802;DHT22;5453;50.852;7.102;2022-10-28T15:17:37;22.60;97.30
10802;DHT22;5453;50.852;7.102;2022-10-28T15:20:20;22.50;97.30
10802;DHT22;5453;50.852;7.102;2022-10-28T15:23:09;22.50;97.50
10802;DHT22;5453;50.852;7.102;2022-10-28T15:25:41;22.40;97.40
10802;DHT22;5453;50.852;7.102;2022-10-28T15:28:14;22.40;97.60
10802;DHT22;5453;50.852;7.102;2022-10-28T15:30:46;22.40;97.60
10802;DHT22;5453;50.852;7.102;2022-10-28T15:33:19;22.30;97.60
10802;DHT22;5453;50.852;7.102;2022-10-28T15:36:11;22.30;97.50
10802;DHT22;5453;50.852;7.102;2022-10-28T15:38:45;22.30;97.60
10802;DHT22;5453;50.852;7.102;2022-10-28T15:41:45;22.30;97.60
10802;DHT22;5453;50.852;7.102;2022-10-28T15:44:25;22.20;97.80
10802;DHT22;5453;50.852;7.102;2022-10-28T15:47:13;22.20;97.90
10802;DHT22;5453;50.852;7.102;2022-10-28T15:50:00;22.20;98.00
10802;DHT22;5453;50.852;7.102;2022-10-28T15:52:39;22.10;98.20
10802;DHT22;5453;50.852;7.102;2022-10-28T15:55:26;22.10;98.20
10802;DHT22;5453;50.852;7.102;2022-10-28T15:58:01;22.00;98.40
10802;DHT22;5453;50.852;7.102;2022-10-28T16:00:34;22.00;98.50
10802;DHT22;5453;50.852;7.102;2022-10-28T16:03:23;22.00;98.70
10802;DHT22;5453;50.852;7.102;2022-10-28T16:05:57;22.00;98.80
10802;DHT22;5453;50.852;7.102;2022-10-28T16:08:31;21.90;98.90
10802;DHT22;5453;50.852;7.102;2022-10-28T16:11:04;21.90;99.10
10802;DHT22;5453;50.852;7.102;2022-10-28T16:13:46;21.90;99.10
10802;DHT22;5453;50.852;7.102;2022-10-28T16:16:24;21.90;99.00
10802;DHT22;5453;50.852;7.102;2022-10-28T16:19:01;21.90;99.10
10802;DHT22;5453;50.852;7.102;2022-10-28T16:21:37;21.90;99.40
10802;DHT22;5453;50.852;7.102;2022-10-28T16:24:11;21.80;99.60
10802;DHT22;5453;50.852;7.102;2022-10-28T16:26:43;21.80;99.50
10802;DHT22;5453;50.852;7.102;2022-10-28T16:29:15;21.80;99.50
10802;DHT22;5453;50.852;7.102;2022-10-28T16:31:49;21.70;99.60
10802;DHT22;5453;50.852;7.102;2022-10-28T16:34:22;21.70;99.70
10802;DHT22;5453;50.852;7.102;2022-10-28T16:36:54;21.60;99.70
10802;DHT22;5453;50.852;7.102;2022-10-28T16:42:19;21.50;99.90
10802;DHT22;5453;50.852;7.102;2022-10-28T16:44:51;21.40;99.90
10802;DHT22;5453;50.852;7.102;2022-10-28T16:47:24;21.40;99.90
10802;DHT22;5453;50.852;7.102;2022-10-28T16:49:57;21.20;99.90
10802;DHT22;5453;50.852;7.102;2022-10-28T16:52:29;21.20;99.90
10802;DHT22;5453;50.852;7.102;2022-10-28T16:55:02;21.10;99.90
10802;DHT22;5453;50.852;7.102;2022-10-28T16:57:36;21.00;99.90
10802;DHT22;5453;50.852;7.102;2022-10-28T17:00:12;20.90;99.90
10802;DHT22;5453;50.852;7.102;2022-10-28T17:02:45;20.80;99.90
10802;DHT22;5453;50.852;7.102;2022-10-28T17:05:21;20.70;99.90
10802;DHT22;5453;50.852;7.102;2022-10-28T17:07:54;20.60;99.90
10802;DHT22;5453;50.852;7.102;2022-10-28T17:10:27;20.50;99.90
10802;DHT22;5453;50.852;7.102;2022-10-28T17:13:01;20.50;99.90
10802;DHT22;5453;50.852;7.102;2022-10-28T17:15:33;20.40;99.90
10802;DHT22;5453;50.852;7.102;2022-10-28T17:18:07;20.40;99.90
10802;DHT22;5453;50.852;7.102;2022-10-28T17:20:39;20.30;99.90
10802;DHT22;5453;50.852;7.102;2022-10-28T17:23:12;20.20;99.90
10802;DHT22;5453;50.852;7.102;2022-10-28T17:25:54;20.20;99.90